createdAt,value
2022-11-27T00:01:35.808Z,9.50
2022-11-27T00:04:04.511Z,9.50
2022-11-27T00:06:35.503Z,9.50
2022-11-27T00:09:07.189Z,9.50
2022-11-27T00:11:35.783Z,9.50
2022-11-27T00:14:04.264Z,9.50
2022-11-27T00:16:32.590Z,9.50
2022-11-27T00:19:01.129Z,9.50
2022-11-27T00:21:31.718Z,9.40
2022-11-27T00:24:03.648Z,9.50
2022-11-27T00:26:37.610Z,9.40
2022-11-27T00:29:07.034Z,9.40
2022-11-27T00:31:37.584Z,9.40
2022-11-27T00:34:07.986Z,9.40
2022-11-27T00:36:37.410Z,9.40
2022-11-27T00:39:07.188Z,9.40
2022-11-27T00:41:35.623Z,9.40
2022-11-27T00:44:03.865Z,9.30
2022-11-27T00:46:34.633Z,9.30
2022-11-27T00:49:05.215Z,9.30
2022-11-27T00:51:33.531Z,9.30
2022-11-27T00:54:02.198Z,9.30
2022-11-27T00:56:33.477Z,9.30
2022-11-27T00:59:02.243Z,9.30
2022-11-27T01:01:32.914Z,9.30
2022-11-27T01:04:02.382Z,9.30
2022-11-27T01:06:31.735Z,9.30
2022-11-27T01:09:00.337Z,9.30
2022-11-27T01:11:32.473Z,9.40
2022-11-27T01:14:02.236Z,9.40
2022-11-27T01:16:32.044Z,9.30
2022-11-27T01:19:01.905Z,9.30
2022-11-27T01:21:32.727Z,9.30
2022-11-27T01:24:01.982Z,9.30
2022-11-27T01:26:32.184Z,9.30
2022-11-27T01:29:01.577Z,9.30
2022-11-27T01:31:32.488Z,9.30
2022-11-27T01:34:02.804Z,9.20
2022-11-27T01:36:32.053Z,9.20
2022-11-27T01:39:00.585Z,9.20
2022-11-27T01:41:32.752Z,9.20
2022-11-27T01:44:02.826Z,9.20
2022-11-27T01:46:38.646Z,9.10
2022-11-27T01:49:30.868Z,9.10
2022-11-27T01:52:03.683Z,9.10
2022-11-27T01:54:35.679Z,9.10
2022-11-27T01:57:11.385Z,9.10
2022-11-27T01:59:39.968Z,9.00
2022-11-27T02:02:08.301Z,9.00
2022-11-27T02:04:36.832Z,9.00
2022-11-27T02:07:05.160Z,9.00
2022-11-27T02:09:33.753Z,9.00
2022-11-27T02:12:12.382Z,9.00
2022-11-27T02:14:48.486Z,9.00
2022-11-27T02:17:23.368Z,8.90
2022-11-27T02:20:14.230Z,8.90
2022-11-27T02:22:59.117Z,8.90
2022-11-27T02:25:38.957Z,8.90
2022-11-27T02:28:32.826Z,8.80
2022-11-27T02:31:07.002Z,8.80
2022-11-27T02:33:40.892Z,8.80
2022-11-27T02:36:13.202Z,8.80
2022-11-27T02:38:45.805Z,8.70
2022-11-27T02:41:18.590Z,8.70
2022-11-27T02:43:49.621Z,8.70
2022-11-27T02:46:21.587Z,8.70
2022-11-27T02:48:53.084Z,8.60
2022-11-27T02:51:24.825Z,8.60
2022-11-27T02:53:56.110Z,8.60
2022-11-27T02:56:27.319Z,8.60
2022-11-27T02:58:58.559Z,8.70
2022-11-27T03:01:32.519Z,8.60
2022-11-27T03:04:04.044Z,8.60
2022-11-27T03:06:39.217Z,8.70
2022-11-27T03:09:12.525Z,8.70
2022-11-27T03:11:40.646Z,8.70
2022-11-27T03:14:11.394Z,8.70
2022-11-27T03:16:44.487Z,8.70
2022-11-27T03:19:19.412Z,8.70
2022-11-27T03:21:53.257Z,8.70
2022-11-27T09:44:31.774Z,9.80
2022-11-27T09:47:07.574Z,10.10
2022-11-27T09:49:42.262Z,10.30
2022-11-27T09:52:16.823Z,10.50
2022-11-27T09:54:54.955Z,10.70
2022-11-27T09:57:29.507Z,10.70
2022-11-27T10:00:02.909Z,10.80
2022-11-27T10:02:34.379Z,10.90
2022-11-27T10:05:13.990Z,11.00
2022-11-27T10:07:53.137Z,11.00
2022-11-27T10:10:37.456Z,11.10
2022-11-27T10:13:15.797Z,11.10
2022-11-27T10:15:49.196Z,11.20
2022-11-27T10:18:26.737Z,11.20
2022-11-27T10:20:59.489Z,11.20
2022-11-27T10:23:57.427Z,11.20
2022-11-27T10:26:30.519Z,11.40
2022-11-27T10:29:05.506Z,11.60
2022-11-27T10:31:38.188Z,11.80
2022-11-27T10:34:21.309Z,12.10
2022-11-27T10:36:51.646Z,12.20
2022-11-27T10:39:27.203Z,12.40
2022-11-27T10:42:02.695Z,12.60
2022-11-27T10:44:34.461Z,12.80
2022-11-27T10:47:06.834Z,12.90
2022-11-27T10:49:40.193Z,13.00
2022-11-27T10:52:12.117Z,13.10
2022-11-27T10:54:41.124Z,13.10
2022-11-27T10:57:42.040Z,13.10
2022-11-27T11:00:15.717Z,12.90
2022-11-27T11:02:43.929Z,12.80
2022-11-27T11:05:57.500Z,12.70
2022-11-27T11:08:18.245Z,12.50
2022-11-27T11:10:52.700Z,12.40
2022-11-27T11:13:23.330Z,12.30
2022-11-27T11:16:00.923Z,12.20
2022-11-27T11:18:31.311Z,12.10
2022-11-27T11:21:02.958Z,12.00
2022-11-27T11:23:34.841Z,11.90
2022-11-27T11:26:06.553Z,11.80
2022-11-27T11:28:39.670Z,11.70
2022-11-27T11:31:10.765Z,11.60
2022-11-27T11:33:50.860Z,11.60
2022-11-27T11:36:20.560Z,11.50
2022-11-27T11:38:50.103Z,11.50
2022-11-27T11:41:19.120Z,11.40
2022-11-27T11:44:01.818Z,11.40
2022-11-27T11:46:32.904Z,11.40
2022-11-27T11:49:04.341Z,11.40
2022-11-27T11:52:05.787Z,11.50
2022-11-27T11:54:50.524Z,11.50
2022-11-27T11:57:44.437Z,11.60
2022-11-27T12:00:16.891Z,11.70
2022-11-27T12:03:06.293Z,11.70
2022-11-27T12:05:41.730Z,11.70
2022-11-27T12:08:42.629Z,11.80
2022-11-27T12:11:16.168Z,11.80
2022-11-27T12:13:56.725Z,11.80
2022-11-27T12:16:32.670Z,11.80
2022-11-27T12:19:21.080Z,11.80
2022-11-27T12:22:00.114Z,11.80
2022-11-27T12:24:37.217Z,11.80
2022-11-27T12:27:22.470Z,11.80
2022-11-27T12:30:13.051Z,11.70
2022-11-27T12:33:05.265Z,11.70
2022-11-27T12:35:38.059Z,11.70
2022-11-27T12:38:23.628Z,11.70
2022-11-27T12:41:15.159Z,11.70
2022-11-27T12:43:48.458Z,11.70
2022-11-27T12:46:29.683Z,11.70
2022-11-27T12:49:03.706Z,11.70
2022-11-27T12:51:38.570Z,11.70
2022-11-27T12:54:10.988Z,11.70
2022-11-27T12:56:44.951Z,11.70
2022-11-27T12:59:21.803Z,11.70
2022-11-27T13:01:57.273Z,11.70
2022-11-27T13:04:31.539Z,11.70
2022-11-27T13:07:04.445Z,11.70
2022-11-27T13:09:42.435Z,11.80
2022-11-27T13:12:15.117Z,11.90
2022-11-27T13:14:52.539Z,12.00
2022-11-27T13:17:21.067Z,12.30
2022-11-27T13:19:51.316Z,12.70
2022-11-27T13:22:27.504Z,13.00
2022-11-27T13:24:56.800Z,13.30
2022-11-27T13:27:26.806Z,13.60
2022-11-27T13:30:00.327Z,13.90
2022-11-27T13:32:30.736Z,14.10
2022-11-27T13:35:03.414Z,14.30
2022-11-27T13:37:34.555Z,14.40
2022-11-27T13:40:07.011Z,14.50
2022-11-27T13:42:37.892Z,14.40
2022-11-27T13:45:11.421Z,14.30
2022-11-27T13:47:43.285Z,14.20
2022-11-27T13:50:13.262Z,14.00
2022-11-27T13:52:54.707Z,13.80
2022-11-27T13:55:27.968Z,13.60
2022-11-27T13:57:58.058Z,13.50
2022-11-27T14:00:36.925Z,13.30
2022-11-27T14:03:06.167Z,13.20
2022-11-27T14:05:41.007Z,13.10
2022-11-27T14:08:19.650Z,13.00
2022-11-27T14:10:54.557Z,12.80
2022-11-27T14:13:27.514Z,12.70
2022-11-27T14:16:02.660Z,12.60
2022-11-27T14:18:31.779Z,12.50
2022-11-27T14:21:02.695Z,12.40
2022-11-27T14:23:32.744Z,12.20
2022-11-27T14:26:10.611Z,12.10
2022-11-27T14:28:44.077Z,12.00
2022-11-27T14:31:27.925Z,11.90
2022-11-27T14:36:44.401Z,11.80
2022-11-27T14:39:23.348Z,11.70
2022-11-27T14:41:58.581Z,11.60
2022-11-27T14:44:26.947Z,11.50
2022-11-27T14:46:57.265Z,11.40
2022-11-27T14:49:27.121Z,11.30
2022-11-27T14:52:04.105Z,11.30
2022-11-27T14:54:35.354Z,11.20
2022-11-27T14:57:05.155Z,11.10
2022-11-27T14:59:33.495Z,11.00
2022-11-27T15:02:14.519Z,10.90
2022-11-27T15:04:44.452Z,10.80
2022-11-27T15:07:16.775Z,10.70
2022-11-27T15:09:47.389Z,10.70
2022-11-27T15:12:18.997Z,10.60
2022-11-27T15:14:50.576Z,10.60
2022-11-27T15:17:27.184Z,10.50
2022-11-27T15:19:56.118Z,10.50
2022-11-27T15:22:24.648Z,10.50
2022-11-27T15:25:01.140Z,10.40
2022-11-27T15:27:32.669Z,10.40
2022-11-27T15:30:10.261Z,10.40
2022-11-27T15:32:51.312Z,10.40
2022-11-27T15:35:25.273Z,10.30
2022-11-27T15:37:54.677Z,10.30
2022-11-27T15:40:31.556Z,10.20
2022-11-27T15:42:59.683Z,10.20
2022-11-27T15:45:32.790Z,10.20
2022-11-27T15:48:03.161Z,10.20
2022-11-27T15:50:31.867Z,10.20
2022-11-27T15:53:00.972Z,10.20
2022-11-27T15:55:29.443Z,10.10
2022-11-27T15:57:57.946Z,10.10
2022-11-27T16:00:26.815Z,10.10
2022-11-27T16:02:55.395Z,10.00
2022-11-27T16:05:24.981Z,10.00
2022-11-27T16:07:55.413Z,10.00
2022-11-27T16:10:23.840Z,9.90
2022-11-27T16:12:55.013Z,9.90
2022-11-27T16:15:25.071Z,9.90
2022-11-27T16:17:55.671Z,9.80
2022-11-27T16:20:25.510Z,9.80
2022-11-27T16:22:53.662Z,9.80
2022-11-27T16:25:21.798Z,9.80
2022-11-27T16:27:49.905Z,9.70
2022-11-27T16:30:19.980Z,9.70
2022-11-27T16:32:48.074Z,9.60
2022-11-27T16:35:16.448Z,9.60
2022-11-27T16:37:45.857Z,9.60
2022-11-27T16:40:15.306Z,9.50
2022-11-27T16:42:43.378Z,9.50
2022-11-27T16:45:12.887Z,9.40
2022-11-27T16:47:41.062Z,9.40
2022-11-27T16:50:10.616Z,9.40
2022-11-27T16:52:38.877Z,9.40
2022-11-27T16:55:09.599Z,9.50
2022-11-27T16:57:37.658Z,9.50
2022-11-27T17:00:07.130Z,9.40
2022-11-27T17:02:35.324Z,9.40
2022-11-27T17:05:03.477Z,9.40
2022-11-27T17:07:31.604Z,9.40
2022-11-27T17:09:59.713Z,9.50
2022-11-27T17:12:29.241Z,9.50
2022-11-27T17:14:57.288Z,9.50
2022-11-27T17:17:25.411Z,9.50
2022-11-27T17:20:00.218Z,9.50
2022-11-27T17:22:30.467Z,9.50
2022-11-27T17:24:58.806Z,9.50
2022-11-27T17:27:28.271Z,9.50
2022-11-27T17:29:56.376Z,9.50
2022-11-27T17:32:25.289Z,9.50
2022-11-27T17:34:53.585Z,9.50
2022-11-27T17:37:21.657Z,9.40
2022-11-27T17:39:49.712Z,9.40
2022-11-27T17:42:22.407Z,9.40
2022-11-27T17:44:52.358Z,9.40
2022-11-27T17:47:20.583Z,9.50
2022-11-27T17:49:48.691Z,9.50
2022-11-27T17:52:16.779Z,9.50
2022-11-27T17:54:44.976Z,9.50
2022-11-27T17:57:13.264Z,9.50
2022-11-27T17:59:41.677Z,9.40
2022-11-27T18:02:12.851Z,9.40
2022-11-27T18:04:41.079Z,9.40
2022-11-27T18:07:09.172Z,9.40
2022-11-27T18:09:37.402Z,9.40
2022-11-27T18:12:07.681Z,9.40
2022-11-27T18:14:36.130Z,9.40
2022-11-27T18:17:07.041Z,9.30
2022-11-27T18:19:36.538Z,9.30
2022-11-27T18:22:04.720Z,9.30
2022-11-27T18:24:32.822Z,9.20
2022-11-27T18:27:09.149Z,9.30
2022-11-27T18:29:39.134Z,9.20
2022-11-27T18:32:08.031Z,9.20
2022-11-27T18:34:37.582Z,9.10
2022-11-27T18:37:06.606Z,9.10
2022-11-27T18:39:35.246Z,9.10
2022-11-27T18:42:04.962Z,9.10
2022-11-27T18:44:39.513Z,9.10
2022-11-27T18:47:12.694Z,9.10
2022-11-27T18:49:42.816Z,9.10
2022-11-27T18:52:11.907Z,9.10
2022-11-27T18:54:40.028Z,9.10
2022-11-27T18:57:08.191Z,9.10
2022-11-27T18:59:36.680Z,9.00
2022-11-27T19:02:05.974Z,9.00
2022-11-27T19:04:36.508Z,9.00
2022-11-27T19:07:06.516Z,9.00
2022-11-27T19:09:35.258Z,9.00
2022-11-27T19:12:03.428Z,9.00
2022-11-27T19:14:32.025Z,8.90
2022-11-27T19:17:00.201Z,8.90
2022-11-27T19:19:53.976Z,8.90
2022-11-27T19:22:19.915Z,8.90
2022-11-27T19:24:48.465Z,8.90
2022-11-27T19:27:16.598Z,8.90
2022-11-27T19:29:44.760Z,8.90
2022-11-27T19:32:12.965Z,8.90
2022-11-27T19:34:41.387Z,8.90
2022-11-27T19:37:09.980Z,8.90
2022-11-27T19:39:39.510Z,8.90
2022-11-27T19:42:08.110Z,8.80
2022-11-27T19:44:36.537Z,8.80
2022-11-27T19:47:05.490Z,8.80
2022-11-27T19:49:33.671Z,8.80
2022-11-27T19:52:01.757Z,8.90
2022-11-27T19:54:29.834Z,8.90
2022-11-27T19:56:59.295Z,8.90
2022-11-27T19:59:27.669Z,8.90
2022-11-27T20:01:55.913Z,8.80
2022-11-27T20:04:24.125Z,8.80
2022-11-27T20:06:53.973Z,8.80
2022-11-27T20:09:22.062Z,8.80
2022-11-27T20:11:50.185Z,8.80
2022-11-27T20:14:20.143Z,8.80
2022-11-27T20:16:48.374Z,8.70
2022-11-27T20:19:16.512Z,8.70
2022-11-27T20:21:45.141Z,8.70
2022-11-27T20:24:14.235Z,8.70
2022-11-27T20:26:45.490Z,8.60
2022-11-27T20:29:15.639Z,8.60
2022-11-27T20:31:45.745Z,8.60
2022-11-27T20:34:21.406Z,8.60
2022-11-27T20:36:50.884Z,8.50
2022-11-27T20:39:21.882Z,8.60
2022-11-27T20:41:52.072Z,8.50
2022-11-27T20:44:22.385Z,8.60
2022-11-27T20:46:52.210Z,8.50
2022-11-27T20:49:20.830Z,8.60
2022-11-27T20:51:50.637Z,8.60
2022-11-27T20:54:19.320Z,8.60
2022-11-27T20:56:47.643Z,8.60
2022-11-27T20:59:15.758Z,8.60
2022-11-27T21:01:44.067Z,8.70
2022-11-27T21:04:21.310Z,8.70
2022-11-27T21:06:49.890Z,8.80
2022-11-27T21:09:18.722Z,8.80
2022-11-27T21:11:47.465Z,8.80
2022-11-27T21:14:16.671Z,8.80
2022-11-27T21:16:48.843Z,8.90
2022-11-27T21:19:22.349Z,8.90
2022-11-27T21:21:51.713Z,9.00
2022-11-27T21:24:20.889Z,8.90
2022-11-27T21:26:49.409Z,9.00
2022-11-27T21:29:17.866Z,9.00
2022-11-27T21:31:47.407Z,9.00
2022-11-27T21:34:16.459Z,8.90
2022-11-27T21:36:45.934Z,8.90
2022-11-27T21:39:20.241Z,8.90
2022-11-27T21:41:49.658Z,8.80
2022-11-27T21:44:18.865Z,8.80
2022-11-27T21:46:47.132Z,8.70
2022-11-27T21:49:17.324Z,8.70
2022-11-27T21:51:46.935Z,8.70
2022-11-27T21:54:16.038Z,8.70
2022-11-27T21:56:44.180Z,8.60
2022-11-27T21:59:14.138Z,8.60
2022-11-27T22:01:42.412Z,8.60
2022-11-27T22:04:10.551Z,8.60
2022-11-27T22:06:40.185Z,8.50
2022-11-27T22:09:14.930Z,8.50
2022-11-27T22:11:44.217Z,8.50
2022-11-27T22:14:13.069Z,8.50
2022-11-27T22:16:45.163Z,8.40
2022-11-27T22:19:14.708Z,8.40
2022-11-27T22:21:45.282Z,8.30
2022-11-27T22:24:23.723Z,8.30
2022-11-27T22:26:51.903Z,8.30
2022-11-27T22:29:20.024Z,8.30
2022-11-27T22:31:48.205Z,8.20
2022-11-27T22:34:17.366Z,8.20
2022-11-27T22:36:45.727Z,8.20
2022-11-27T22:39:15.194Z,8.20
2022-11-27T22:41:43.830Z,8.10
2022-11-27T22:44:15.949Z,8.10
2022-11-27T22:46:44.851Z,8.10
2022-11-27T22:49:14.768Z,8.10
2022-11-27T22:51:43.395Z,8.00
2022-11-27T22:54:14.954Z,8.00
2022-11-27T22:56:43.051Z,8.00
2022-11-27T23:02:00.212Z,8.00
2022-11-27T23:04:28.486Z,8.00
2022-11-27T23:06:56.800Z,8.00
2022-11-27T23:09:26.484Z,8.00
2022-11-27T23:11:56.384Z,8.00
2022-11-27T23:14:24.515Z,7.90
2022-11-27T23:16:52.846Z,7.90
2022-11-27T23:19:23.190Z,7.90
2022-11-27T23:21:51.623Z,7.90
2022-11-27T23:24:20.019Z,7.90
2022-11-27T23:26:49.691Z,8.00
2022-11-27T23:29:17.774Z,8.00
2022-11-27T23:31:45.914Z,8.00
2022-11-27T23:34:15.998Z,7.90
2022-11-27T23:36:44.246Z,8.00
2022-11-27T23:39:14.047Z,7.90
2022-11-27T23:41:42.496Z,7.90
2022-11-27T23:44:12.164Z,7.90
2022-11-27T23:46:40.584Z,7.90
2022-11-27T23:49:08.727Z,7.90
2022-11-27T23:51:36.995Z,7.90
2022-11-27T23:54:08.139Z,7.90
2022-11-27T23:56:36.439Z,7.90
2022-11-27T23:59:04.766Z,7.90
